This is the latest recevied weather packets stored in our database for station/object SQ5RTW-1. If no packets are shown the sender has not sent any weather packets the latest 10 day(s).
| Time | Temp. | Humidity | Pressure | Rain* | Wind** | Luminosity | Snow |
|---|---|---|---|---|---|---|---|
| 1777621706 | 18.89° C | 36% | 1028.8 hPa | - | - | - | - |
| 1777620805 | 19.44° C | 36% | 1029 hPa | - | - | - | - |
| 1777619904 | 20° C | 38% | 1028.9 hPa | - | - | - | - |
| 1777619887 | 20.56° C | 38% | 1028.8 hPa | - | - | - | - |
| 1777619862 | 18.33° C | 38% | 1028.8 hPa | - | - | - | - |
| 1777618962 | 18.33° C | 38% | 1028.7 hPa | - | - | - | - |
| 1777618061 | 15° C | 46% | 1028.8 hPa | - | - | - | - |
| 1777617160 | 13.89° C | 47% | 1028.6 hPa | - | - | - | - |
| 1777616259 | 12.78° C | 50% | 1028.6 hPa | - | - | - | - |
| 1777615357 | 12.22° C | 52% | 1028.7 hPa | - | - | - | - |
| 1777614457 | 11.11° C | 54% | 1028.7 hPa | - | - | - | - |
| 1777613556 | 11.11° C | 54% | 1028.6 hPa | - | - | - | - |
| 1777612655 | 10.56° C | 56% | 1028.7 hPa | - | - | - | - |
| 1777611754 | 10° C | 57% | 1028.7 hPa | - | - | - | - |
| 1777610853 | 9.44° C | 58% | 1028.7 hPa | - | - | - | - |
| 1777609952 | 8.89° C | 58% | 1028.5 hPa | - | - | - | - |
| 1777609051 | 8.89° C | 58% | 1028.6 hPa | - | - | - | - |
| 1777608152 | 10.56° C | 58% | 1028.5 hPa | - | - | - | - |
| 1777608127 | 8.33° C | 58% | 1028.5 hPa | - | - | - | - |
| 1777607226 | 8.33° C | 58% | 1028.4 hPa | - | - | - | - |
| 1777606325 | 8.33° C | 58% | 1028.6 hPa | - | - | - | - |
| 1777605424 | 8.89° C | 55% | 1028.4 hPa | - | - | - | - |
| 1777604523 | 9.44° C | 53% | 1028.4 hPa | - | - | - | - |
| 1777603622 | 9.44° C | 54% | 1028.5 hPa | - | - | - | - |
| 1777602721 | 9.44° C | 54% | 1028.5 hPa | - | - | - | - |
* Rain since midnight (hover to see other rain measurements)
** Current wind speed in m/s (hover to see current wind gust speed)